sensor_id;sensor_type;location;lat;lon;timestamp;temperature;humidity
21115;DHT22;10715;48.546;9.896;2022-07-29T00:00:37;16.20;99.90
21115;DHT22;10715;48.546;9.896;2022-07-29T00:03:03;16.20;99.90
21115;DHT22;10715;48.546;9.896;2022-07-29T00:05:29;16.20;99.90
21115;DHT22;10715;48.546;9.896;2022-07-29T00:07:55;16.10;99.90
21115;DHT22;10715;48.546;9.896;2022-07-29T00:10:21;16.20;99.90
21115;DHT22;10715;48.546;9.896;2022-07-29T00:12:46;16.20;99.90
21115;DHT22;10715;48.546;9.896;2022-07-29T00:15:12;16.20;99.90
21115;DHT22;10715;48.546;9.896;2022-07-29T00:17:38;16.20;99.90
21115;DHT22;10715;48.546;9.896;2022-07-29T00:20:04;16.20;99.90
21115;DHT22;10715;48.546;9.896;2022-07-29T00:22:30;16.20;99.90
21115;DHT22;10715;48.546;9.896;2022-07-29T00:24:56;16.20;99.90
21115;DHT22;10715;48.546;9.896;2022-07-29T00:27:22;16.20;99.90
21115;DHT22;10715;48.546;9.896;2022-07-29T00:29:48;16.20;99.90
21115;DHT22;10715;48.546;9.896;2022-07-29T00:32:13;16.20;99.90
21115;DHT22;10715;48.546;9.896;2022-07-29T00:34:39;16.20;99.90
21115;DHT22;10715;48.546;9.896;2022-07-29T00:37:24;16.10;99.90
21115;DHT22;10715;48.546;9.896;2022-07-29T00:39:50;16.10;99.90
21115;DHT22;10715;48.546;9.896;2022-07-29T00:42:16;16.00;99.90
21115;DHT22;10715;48.546;9.896;2022-07-29T00:44:42;15.90;99.90
21115;DHT22;10715;48.546;9.896;2022-07-29T00:47:09;15.90;99.90
21115;DHT22;10715;48.546;9.896;2022-07-29T00:49:36;15.80;99.90
21115;DHT22;10715;48.546;9.896;2022-07-29T00:52:04;15.70;99.90
21115;DHT22;10715;48.546;9.896;2022-07-29T00:54:31;15.60;99.90
21115;DHT22;10715;48.546;9.896;2022-07-29T00:57:01;15.60;99.90
21115;DHT22;10715;48.546;9.896;2022-07-29T00:59:27;15.60;99.90
21115;DHT22;10715;48.546;9.896;2022-07-29T01:01:54;15.60;99.90
21115;DHT22;10715;48.546;9.896;2022-07-29T01:04:21;15.50;99.90
21115;DHT22;10715;48.546;9.896;2022-07-29T01:06:50;15.50;99.90
21115;DHT22;10715;48.546;9.896;2022-07-29T01:09:18;15.50;99.90
21115;DHT22;10715;48.546;9.896;2022-07-29T01:11:45;15.50;99.90
21115;DHT22;10715;48.546;9.896;2022-07-29T01:14:14;15.50;99.90
21115;DHT22;10715;48.546;9.896;2022-07-29T01:16:46;15.40;99.90
21115;DHT22;10715;48.546;9.896;2022-07-29T01:27:51;15.10;99.90
21115;DHT22;10715;48.546;9.896;2022-07-29T01:30:22;15.00;99.90
21115;DHT22;10715;48.546;9.896;2022-07-29T01:32:53;15.00;99.90
21115;DHT22;10715;48.546;9.896;2022-07-29T01:35:26;14.90;99.90
21115;DHT22;10715;48.546;9.896;2022-07-29T01:42:54;14.90;99.90
21115;DHT22;10715;48.546;9.896;2022-07-29T01:45:51;14.80;99.90
21115;DHT22;10715;48.546;9.896;2022-07-29T01:48:22;14.80;99.90
21115;DHT22;10715;48.546;9.896;2022-07-29T01:50:58;14.70;99.90
21115;DHT22;10715;48.546;9.896;2022-07-29T01:53:36;14.70;99.90
21115;DHT22;10715;48.546;9.896;2022-07-29T01:56:04;14.60;99.90
21115;DHT22;10715;48.546;9.896;2022-07-29T01:58:32;14.60;99.90
21115;DHT22;10715;48.546;9.896;2022-07-29T02:00:59;14.60;99.90
21115;DHT22;10715;48.546;9.896;2022-07-29T02:03:27;14.60;99.90
21115;DHT22;10715;48.546;9.896;2022-07-29T02:05:53;14.50;99.90
21115;DHT22;10715;48.546;9.896;2022-07-29T02:08:21;14.50;99.90
21115;DHT22;10715;48.546;9.896;2022-07-29T02:10:48;14.50;99.90
21115;DHT22;10715;48.546;9.896;2022-07-29T02:13:17;14.50;99.90
21115;DHT22;10715;48.546;9.896;2022-07-29T02:15:44;14.50;99.90
21115;DHT22;10715;48.546;9.896;2022-07-29T02:18:18;14.50;99.90
21115;DHT22;10715;48.546;9.896;2022-07-29T02:20:48;14.50;99.90
21115;DHT22;10715;48.546;9.896;2022-07-29T02:23:21;14.60;99.90
21115;DHT22;10715;48.546;9.896;2022-07-29T02:25:55;14.60;99.90
21115;DHT22;10715;48.546;9.896;2022-07-29T02:28:24;14.60;99.90
21115;DHT22;10715;48.546;9.896;2022-07-29T02:30:52;14.50;99.90
21115;DHT22;10715;48.546;9.896;2022-07-29T02:33:19;14.50;99.90
21115;DHT22;10715;48.546;9.896;2022-07-29T02:35:47;14.40;99.90
21115;DHT22;10715;48.546;9.896;2022-07-29T02:38:15;14.40;99.90
21115;DHT22;10715;48.546;9.896;2022-07-29T02:41:23;14.40;99.90
21115;DHT22;10715;48.546;9.896;2022-07-29T02:43:54;14.30;99.90
21115;DHT22;10715;48.546;9.896;2022-07-29T02:46:28;14.30;99.90
21115;DHT22;10715;48.546;9.896;2022-07-29T02:48:59;14.20;99.90
21115;DHT22;10715;48.546;9.896;2022-07-29T02:51:54;14.20;99.90
21115;DHT22;10715;48.546;9.896;2022-07-29T02:57:21;14.20;99.90
21115;DHT22;10715;48.546;9.896;2022-07-29T02:59:51;14.20;99.90
21115;DHT22;10715;48.546;9.896;2022-07-29T03:02:17;14.20;99.90
21115;DHT22;10715;48.546;9.896;2022-07-29T03:04:44;14.20;99.90
21115;DHT22;10715;48.546;9.896;2022-07-29T03:07:13;14.30;99.90
21115;DHT22;10715;48.546;9.896;2022-07-29T03:09:41;14.30;99.90
21115;DHT22;10715;48.546;9.896;2022-07-29T03:12:08;14.30;99.90
21115;DHT22;10715;48.546;9.896;2022-07-29T03:14:34;14.20;99.90
21115;DHT22;10715;48.546;9.896;2022-07-29T03:17:00;14.20;99.90
21115;DHT22;10715;48.546;9.896;2022-07-29T03:19:26;14.10;99.90
21115;DHT22;10715;48.546;9.896;2022-07-29T03:21:52;14.00;99.90
21115;DHT22;10715;48.546;9.896;2022-07-29T03:24:31;14.00;99.90
21115;DHT22;10715;48.546;9.896;2022-07-29T03:26:58;13.90;99.90
21115;DHT22;10715;48.546;9.896;2022-07-29T03:29:24;13.90;99.90
21115;DHT22;10715;48.546;9.896;2022-07-29T03:31:50;13.80;99.90
21115;DHT22;10715;48.546;9.896;2022-07-29T03:34:16;13.80;99.90
21115;DHT22;10715;48.546;9.896;2022-07-29T03:36:42;13.80;99.90
21115;DHT22;10715;48.546;9.896;2022-07-29T03:39:09;13.70;99.90
21115;DHT22;10715;48.546;9.896;2022-07-29T03:41:37;13.70;99.90
21115;DHT22;10715;48.546;9.896;2022-07-29T03:44:06;13.70;99.90
21115;DHT22;10715;48.546;9.896;2022-07-29T03:46:33;13.70;99.90
21115;DHT22;10715;48.546;9.896;2022-07-29T03:49:01;13.60;99.90
21115;DHT22;10715;48.546;9.896;2022-07-29T03:51:28;13.60;99.90
21115;DHT22;10715;48.546;9.896;2022-07-29T03:53:54;13.60;99.90
21115;DHT22;10715;48.546;9.896;2022-07-29T03:56:22;13.60;99.90
21115;DHT22;10715;48.546;9.896;2022-07-29T03:58:52;13.50;99.90
21115;DHT22;10715;48.546;9.896;2022-07-29T04:01:19;13.50;99.90
21115;DHT22;10715;48.546;9.896;2022-07-29T04:03:46;13.50;99.90
21115;DHT22;10715;48.546;9.896;2022-07-29T04:06:12;13.50;99.90
21115;DHT22;10715;48.546;9.896;2022-07-29T04:08:38;13.50;99.90
21115;DHT22;10715;48.546;9.896;2022-07-29T04:11:05;13.50;99.90
21115;DHT22;10715;48.546;9.896;2022-07-29T04:13:31;13.50;99.90
21115;DHT22;10715;48.546;9.896;2022-07-29T04:15:57;13.60;99.90
21115;DHT22;10715;48.546;9.896;2022-07-29T04:18:23;13.60;99.90
21115;DHT22;10715;48.546;9.896;2022-07-29T04:20:49;13.60;99.90
21115;DHT22;10715;48.546;9.896;2022-07-29T04:23:15;13.60;99.90
21115;DHT22;10715;48.546;9.896;2022-07-29T04:25:41;13.60;99.90
21115;DHT22;10715;48.546;9.896;2022-07-29T04:28:07;13.70;99.90
21115;DHT22;10715;48.546;9.896;2022-07-29T04:30:34;13.70;99.90
21115;DHT22;10715;48.546;9.896;2022-07-29T04:33:05;13.80;99.90
21115;DHT22;10715;48.546;9.896;2022-07-29T04:35:34;13.80;99.90
21115;DHT22;10715;48.546;9.896;2022-07-29T04:38:00;13.90;99.90
21115;DHT22;10715;48.546;9.896;2022-07-29T04:40:27;13.90;99.90
21115;DHT22;10715;48.546;9.896;2022-07-29T04:42:53;14.00;99.90
21115;DHT22;10715;48.546;9.896;2022-07-29T04:45:19;14.10;99.90
21115;DHT22;10715;48.546;9.896;2022-07-29T04:47:44;14.20;99.90
21115;DHT22;10715;48.546;9.896;2022-07-29T04:50:10;14.40;99.90
21115;DHT22;10715;48.546;9.896;2022-07-29T04:52:36;14.50;99.90
21115;DHT22;10715;48.546;9.896;2022-07-29T04:55:03;14.70;99.90
21115;DHT22;10715;48.546;9.896;2022-07-29T04:57:29;14.80;99.90
21115;DHT22;10715;48.546;9.896;2022-07-29T04:59:55;15.00;99.90
21115;DHT22;10715;48.546;9.896;2022-07-29T05:02:21;15.20;99.90
21115;DHT22;10715;48.546;9.896;2022-07-29T05:04:47;15.50;99.90
21115;DHT22;10715;48.546;9.896;2022-07-29T05:07:13;15.70;99.90
21115;DHT22;10715;48.546;9.896;2022-07-29T05:09:39;15.90;99.90
21115;DHT22;10715;48.546;9.896;2022-07-29T05:12:06;16.00;99.90
21115;DHT22;10715;48.546;9.896;2022-07-29T05:14:32;16.20;99.90
21115;DHT22;10715;48.546;9.896;2022-07-29T05:16:58;16.30;99.90
21115;DHT22;10715;48.546;9.896;2022-07-29T05:19:24;16.40;99.90
21115;DHT22;10715;48.546;9.896;2022-07-29T05:21:50;16.40;99.90
21115;DHT22;10715;48.546;9.896;2022-07-29T05:24:16;16.50;99.90
21115;DHT22;10715;48.546;9.896;2022-07-29T05:26:42;16.60;99.90
21115;DHT22;10715;48.546;9.896;2022-07-29T05:29:08;16.70;99.90
21115;DHT22;10715;48.546;9.896;2022-07-29T05:31:33;16.70;99.90
21115;DHT22;10715;48.546;9.896;2022-07-29T05:33:59;16.70;99.90
21115;DHT22;10715;48.546;9.896;2022-07-29T05:36:26;16.80;99.90
21115;DHT22;10715;48.546;9.896;2022-07-29T05:38:52;16.80;99.90
21115;DHT22;10715;48.546;9.896;2022-07-29T05:41:18;16.80;99.90
21115;DHT22;10715;48.546;9.896;2022-07-29T05:43:44;17.00;99.90
21115;DHT22;10715;48.546;9.896;2022-07-29T05:46:10;17.30;99.90
21115;DHT22;10715;48.546;9.896;2022-07-29T05:48:36;17.50;99.90
21115;DHT22;10715;48.546;9.896;2022-07-29T05:51:02;17.70;99.90
21115;DHT22;10715;48.546;9.896;2022-07-29T05:53:27;17.80;99.90
21115;DHT22;10715;48.546;9.896;2022-07-29T05:55:53;18.00;99.90
21115;DHT22;10715;48.546;9.896;2022-07-29T05:58:19;18.20;99.90
21115;DHT22;10715;48.546;9.896;2022-07-29T06:00:45;18.40;99.90
21115;DHT22;10715;48.546;9.896;2022-07-29T06:03:11;18.60;99.90
21115;DHT22;10715;48.546;9.896;2022-07-29T06:05:37;18.80;99.90
21115;DHT22;10715;48.546;9.896;2022-07-29T06:08:03;18.90;99.90
21115;DHT22;10715;48.546;9.896;2022-07-29T06:10:31;19.20;99.90
21115;DHT22;10715;48.546;9.896;2022-07-29T06:12:56;19.60;99.90
21115;DHT22;10715;48.546;9.896;2022-07-29T06:15:22;19.80;99.90
21115;DHT22;10715;48.546;9.896;2022-07-29T06:17:48;19.90;99.90
21115;DHT22;10715;48.546;9.896;2022-07-29T06:20:13;19.90;99.90
21115;DHT22;10715;48.546;9.896;2022-07-29T06:22:39;20.20;99.90
21115;DHT22;10715;48.546;9.896;2022-07-29T06:25:06;20.70;99.90
21115;DHT22;10715;48.546;9.896;2022-07-29T06:27:31;21.30;99.90
21115;DHT22;10715;48.546;9.896;2022-07-29T06:29:57;21.50;99.90
21115;DHT22;10715;48.546;9.896;2022-07-29T06:32:23;21.70;99.90
21115;DHT22;10715;48.546;9.896;2022-07-29T06:34:48;22.00;99.90
21115;DHT22;10715;48.546;9.896;2022-07-29T06:37:14;22.20;99.90
21115;DHT22;10715;48.546;9.896;2022-07-29T06:39:40;21.90;99.90
21115;DHT22;10715;48.546;9.896;2022-07-29T06:42:06;21.80;99.90
21115;DHT22;10715;48.546;9.896;2022-07-29T06:44:32;21.90;99.90
21115;DHT22;10715;48.546;9.896;2022-07-29T06:47:01;22.10;99.90
21115;DHT22;10715;48.546;9.896;2022-07-29T06:49:27;22.50;99.90
21115;DHT22;10715;48.546;9.896;2022-07-29T06:51:54;22.80;99.90
21115;DHT22;10715;48.546;9.896;2022-07-29T06:54:20;22.80;99.90
21115;DHT22;10715;48.546;9.896;2022-07-29T06:56:47;22.70;99.90
21115;DHT22;10715;48.546;9.896;2022-07-29T06:59:12;22.30;99.90
21115;DHT22;10715;48.546;9.896;2022-07-29T07:01:40;22.20;99.90
21115;DHT22;10715;48.546;9.896;2022-07-29T07:04:07;22.30;99.90
21115;DHT22;10715;48.546;9.896;2022-07-29T07:06:34;22.10;99.90
21115;DHT22;10715;48.546;9.896;2022-07-29T07:09:00;22.40;99.90
21115;DHT22;10715;48.546;9.896;2022-07-29T07:11:26;23.10;99.90
21115;DHT22;10715;48.546;9.896;2022-07-29T07:13:52;23.30;99.90
21115;DHT22;10715;48.546;9.896;2022-07-29T07:16:17;23.10;99.90
21115;DHT22;10715;48.546;9.896;2022-07-29T07:18:43;22.80;99.90
21115;DHT22;10715;48.546;9.896;2022-07-29T07:21:11;22.40;99.90
21115;DHT22;10715;48.546;9.896;2022-07-29T07:23:36;22.00;99.90
21115;DHT22;10715;48.546;9.896;2022-07-29T07:26:02;22.00;99.90
21115;DHT22;10715;48.546;9.896;2022-07-29T07:28:28;22.10;99.90
21115;DHT22;10715;48.546;9.896;2022-07-29T07:30:54;22.50;99.90
21115;DHT22;10715;48.546;9.896;2022-07-29T07:33:20;22.60;99.90
21115;DHT22;10715;48.546;9.896;2022-07-29T07:35:46;22.00;99.90
21115;DHT22;10715;48.546;9.896;2022-07-29T07:38:12;21.60;99.90
21115;DHT22;10715;48.546;9.896;2022-07-29T07:40:38;21.70;99.90
21115;DHT22;10715;48.546;9.896;2022-07-29T07:43:04;21.90;99.90
21115;DHT22;10715;48.546;9.896;2022-07-29T07:45:30;22.70;99.90
21115;DHT22;10715;48.546;9.896;2022-07-29T07:47:58;24.20;99.90
21115;DHT22;10715;48.546;9.896;2022-07-29T07:50:23;25.50;99.90
21115;DHT22;10715;48.546;9.896;2022-07-29T07:52:54;26.40;99.90
21115;DHT22;10715;48.546;9.896;2022-07-29T07:55:23;27.50;99.90
21115;DHT22;10715;48.546;9.896;2022-07-29T07:57:49;27.80;99.90
21115;DHT22;10715;48.546;9.896;2022-07-29T08:00:16;28.10;99.90
21115;DHT22;10715;48.546;9.896;2022-07-29T08:02:42;28.10;99.90
21115;DHT22;10715;48.546;9.896;2022-07-29T08:05:09;27.50;99.90
21115;DHT22;10715;48.546;9.896;2022-07-29T08:07:36;27.10;99.90
21115;DHT22;10715;48.546;9.896;2022-07-29T08:10:02;27.10;99.90
21115;DHT22;10715;48.546;9.896;2022-07-29T08:12:28;27.00;99.90
21115;DHT22;10715;48.546;9.896;2022-07-29T08:14:54;26.90;99.90
21115;DHT22;10715;48.546;9.896;2022-07-29T08:17:19;26.70;99.90
21115;DHT22;10715;48.546;9.896;2022-07-29T08:19:45;27.50;99.90
21115;DHT22;10715;48.546;9.896;2022-07-29T08:22:13;28.30;99.90
21115;DHT22;10715;48.546;9.896;2022-07-29T08:24:38;29.70;99.90
21115;DHT22;10715;48.546;9.896;2022-07-29T08:27:18;30.80;99.90
21115;DHT22;10715;48.546;9.896;2022-07-29T08:29:45;31.20;99.90
21115;DHT22;10715;48.546;9.896;2022-07-29T08:32:10;30.40;99.90
21115;DHT22;10715;48.546;9.896;2022-07-29T08:34:36;29.40;99.90
21115;DHT22;10715;48.546;9.896;2022-07-29T08:37:02;29.50;99.90
21115;DHT22;10715;48.546;9.896;2022-07-29T08:39:28;29.60;99.90
21115;DHT22;10715;48.546;9.896;2022-07-29T08:41:53;29.80;99.90
21115;DHT22;10715;48.546;9.896;2022-07-29T08:44:20;30.00;99.90
21115;DHT22;10715;48.546;9.896;2022-07-29T08:46:48;30.60;99.90
21115;DHT22;10715;48.546;9.896;2022-07-29T08:49:15;31.20;98.10
21115;DHT22;10715;48.546;9.896;2022-07-29T08:51:41;31.60;98.50
21115;DHT22;10715;48.546;9.896;2022-07-29T08:54:09;32.30;96.40
21115;DHT22;10715;48.546;9.896;2022-07-29T08:56:35;32.90;93.80
21115;DHT22;10715;48.546;9.896;2022-07-29T08:59:03;32.50;93.50
21115;DHT22;10715;48.546;9.896;2022-07-29T09:01:32;32.80;93.40
21115;DHT22;10715;48.546;9.896;2022-07-29T09:03:59;32.70;91.90
21115;DHT22;10715;48.546;9.896;2022-07-29T09:06:30;32.20;92.80
21115;DHT22;10715;48.546;9.896;2022-07-29T09:08:59;31.50;93.20
21115;DHT22;10715;48.546;9.896;2022-07-29T09:11:25;31.40;93.10
21115;DHT22;10715;48.546;9.896;2022-07-29T09:13:51;32.00;92.60
21115;DHT22;10715;48.546;9.896;2022-07-29T09:16:17;32.80;90.70
21115;DHT22;10715;48.546;9.896;2022-07-29T09:18:45;33.30;89.50
21115;DHT22;10715;48.546;9.896;2022-07-29T09:21:14;33.50;88.00
21115;DHT22;10715;48.546;9.896;2022-07-29T09:24:04;33.40;87.70
21115;DHT22;10715;48.546;9.896;2022-07-29T09:26:34;33.10;86.40
21115;DHT22;10715;48.546;9.896;2022-07-29T09:29:14;33.00;86.80
21115;DHT22;10715;48.546;9.896;2022-07-29T09:31:42;33.30;86.50
21115;DHT22;10715;48.546;9.896;2022-07-29T09:34:09;33.80;83.10
21115;DHT22;10715;48.546;9.896;2022-07-29T09:37:01;33.10;84.10
21115;DHT22;10715;48.546;9.896;2022-07-29T09:39:30;31.30;88.70
21115;DHT22;10715;48.546;9.896;2022-07-29T09:41:59;30.00;91.80
21115;DHT22;10715;48.546;9.896;2022-07-29T09:44:26;29.10;92.80
21115;DHT22;10715;48.546;9.896;2022-07-29T09:47:03;28.50;93.60
21115;DHT22;10715;48.546;9.896;2022-07-29T09:49:32;27.80;95.10
21115;DHT22;10715;48.546;9.896;2022-07-29T09:52:09;27.10;96.10
21115;DHT22;10715;48.546;9.896;2022-07-29T09:54:36;26.60;97.50
21115;DHT22;10715;48.546;9.896;2022-07-29T09:57:04;26.30;99.00
21115;DHT22;10715;48.546;9.896;2022-07-29T09:59:30;26.20;99.90
21115;DHT22;10715;48.546;9.896;2022-07-29T10:01:56;27.50;98.60
21115;DHT22;10715;48.546;9.896;2022-07-29T10:04:22;28.60;96.70
21115;DHT22;10715;48.546;9.896;2022-07-29T10:09:23;29.10;94.70
21115;DHT22;10715;48.546;9.896;2022-07-29T10:12:22;28.80;95.80
21115;DHT22;10715;48.546;9.896;2022-07-29T10:14:49;28.30;96.40
21115;DHT22;10715;48.546;9.896;2022-07-29T10:17:16;27.90;97.60
21115;DHT22;10715;48.546;9.896;2022-07-29T10:19:42;27.50;96.80
21115;DHT22;10715;48.546;9.896;2022-07-29T10:22:09;27.00;97.90
21115;DHT22;10715;48.546;9.896;2022-07-29T10:24:37;26.60;99.20
21115;DHT22;10715;48.546;9.896;2022-07-29T10:27:06;26.40;99.60
21115;DHT22;10715;48.546;9.896;2022-07-29T10:29:32;26.30;99.90
21115;DHT22;10715;48.546;9.896;2022-07-29T10:32:19;26.20;99.90
21115;DHT22;10715;48.546;9.896;2022-07-29T10:35:15;26.10;99.90
21115;DHT22;10715;48.546;9.896;2022-07-29T10:40:45;26.10;99.70
21115;DHT22;10715;48.546;9.896;2022-07-29T10:43:37;26.20;99.90
21115;DHT22;10715;48.546;9.896;2022-07-29T10:46:06;26.20;99.90
21115;DHT22;10715;48.546;9.896;2022-07-29T10:48:32;26.20;99.90
21115;DHT22;10715;48.546;9.896;2022-07-29T10:51:00;26.20;99.90
21115;DHT22;10715;48.546;9.896;2022-07-29T10:53:52;26.10;98.30
21115;DHT22;10715;48.546;9.896;2022-07-29T10:56:32;26.30;99.90
21115;DHT22;10715;48.546;9.896;2022-07-29T11:01:47;28.00;96.30
21115;DHT22;10715;48.546;9.896;2022-07-29T11:04:13;28.50;96.10
21115;DHT22;10715;48.546;9.896;2022-07-29T11:09:27;29.90;91.00
21115;DHT22;10715;48.546;9.896;2022-07-29T11:11:56;30.50;84.40
21115;DHT22;10715;48.546;9.896;2022-07-29T11:17:18;30.60;80.60
21115;DHT22;10715;48.546;9.896;2022-07-29T11:19:44;29.90;81.20
21115;DHT22;10715;48.546;9.896;2022-07-29T11:22:11;29.10;84.40
21115;DHT22;10715;48.546;9.896;2022-07-29T11:24:37;28.60;86.00
21115;DHT22;10715;48.546;9.896;2022-07-29T11:32:15;27.50;87.30
21115;DHT22;10715;48.546;9.896;2022-07-29T11:34:43;27.40;89.00
21115;DHT22;10715;48.546;9.896;2022-07-29T11:39:36;27.00;90.30
21115;DHT22;10715;48.546;9.896;2022-07-29T11:44:56;26.50;93.60
21115;DHT22;10715;48.546;9.896;2022-07-29T11:47:23;26.10;95.90
21115;DHT22;10715;48.546;9.896;2022-07-29T11:49:53;25.70;98.20
21115;DHT22;10715;48.546;9.896;2022-07-29T11:52:20;25.30;99.20
21115;DHT22;10715;48.546;9.896;2022-07-29T11:54:48;24.70;99.80
21115;DHT22;10715;48.546;9.896;2022-07-29T11:57:18;24.10;99.90
21115;DHT22;10715;48.546;9.896;2022-07-29T11:59:46;23.60;99.90
21115;DHT22;10715;48.546;9.896;2022-07-29T12:02:13;22.90;99.90
21115;DHT22;10715;48.546;9.896;2022-07-29T12:04:52;22.10;99.90
21115;DHT22;10715;48.546;9.896;2022-07-29T12:07:18;21.50;99.90
21115;DHT22;10715;48.546;9.896;2022-07-29T12:09:51;21.10;99.90
21115;DHT22;10715;48.546;9.896;2022-07-29T12:12:18;20.80;99.90
21115;DHT22;10715;48.546;9.896;2022-07-29T12:14:44;20.70;99.90
21115;DHT22;10715;48.546;9.896;2022-07-29T12:17:32;20.60;99.90
21115;DHT22;10715;48.546;9.896;2022-07-29T12:20:00;20.80;99.90
21115;DHT22;10715;48.546;9.896;2022-07-29T12:24:52;21.00;99.90
21115;DHT22;10715;48.546;9.896;2022-07-29T12:27:18;21.10;99.90
21115;DHT22;10715;48.546;9.896;2022-07-29T12:29:45;21.10;99.90
21115;DHT22;10715;48.546;9.896;2022-07-29T12:32:11;21.00;99.90
21115;DHT22;10715;48.546;9.896;2022-07-29T12:34:36;20.80;99.90
21115;DHT22;10715;48.546;9.896;2022-07-29T12:37:02;20.80;99.90
21115;DHT22;10715;48.546;9.896;2022-07-29T12:39:28;20.70;99.90
21115;DHT22;10715;48.546;9.896;2022-07-29T12:41:54;20.50;99.90
21115;DHT22;10715;48.546;9.896;2022-07-29T12:44:20;20.30;99.90
21115;DHT22;10715;48.546;9.896;2022-07-29T12:46:46;20.10;99.90
21115;DHT22;10715;48.546;9.896;2022-07-29T12:49:26;19.70;99.90
21115;DHT22;10715;48.546;9.896;2022-07-29T12:51:51;19.40;99.90
21115;DHT22;10715;48.546;9.896;2022-07-29T12:54:17;19.30;99.90
21115;DHT22;10715;48.546;9.896;2022-07-29T12:56:44;19.20;99.90
21115;DHT22;10715;48.546;9.896;2022-07-29T12:59:22;19.20;99.90
21115;DHT22;10715;48.546;9.896;2022-07-29T13:01:50;19.10;99.90
21115;DHT22;10715;48.546;9.896;2022-07-29T13:04:26;19.00;99.90
21115;DHT22;10715;48.546;9.896;2022-07-29T13:07:04;18.90;99.90
21115;DHT22;10715;48.546;9.896;2022-07-29T13:09:43;18.80;99.90
21115;DHT22;10715;48.546;9.896;2022-07-29T13:12:11;18.60;99.90
21115;DHT22;10715;48.546;9.896;2022-07-29T13:14:42;18.40;99.90
21115;DHT22;10715;48.546;9.896;2022-07-29T13:17:11;18.20;99.90
21115;DHT22;10715;48.546;9.896;2022-07-29T13:19:38;18.00;99.90
21115;DHT22;10715;48.546;9.896;2022-07-29T13:22:06;17.90;99.90
21115;DHT22;10715;48.546;9.896;2022-07-29T13:24:33;17.90;99.90
21115;DHT22;10715;48.546;9.896;2022-07-29T13:26:59;17.80;99.90
21115;DHT22;10715;48.546;9.896;2022-07-29T13:29:24;17.90;99.90
21115;DHT22;10715;48.546;9.896;2022-07-29T13:31:52;17.80;99.90
21115;DHT22;10715;48.546;9.896;2022-07-29T13:34:17;17.80;99.90
21115;DHT22;10715;48.546;9.896;2022-07-29T13:36:45;17.90;99.90
21115;DHT22;10715;48.546;9.896;2022-07-29T13:39:10;17.90;99.90
21115;DHT22;10715;48.546;9.896;2022-07-29T13:41:36;18.00;99.90
21115;DHT22;10715;48.546;9.896;2022-07-29T13:44:02;18.00;99.90
21115;DHT22;10715;48.546;9.896;2022-07-29T13:46:28;18.00;99.90
21115;DHT22;10715;48.546;9.896;2022-07-29T13:48:54;18.20;99.90
21115;DHT22;10715;48.546;9.896;2022-07-29T13:51:19;18.30;99.90
21115;DHT22;10715;48.546;9.896;2022-07-29T13:53:45;18.40;99.90
21115;DHT22;10715;48.546;9.896;2022-07-29T13:56:11;18.60;99.90
21115;DHT22;10715;48.546;9.896;2022-07-29T13:58:36;18.80;99.90
21115;DHT22;10715;48.546;9.896;2022-07-29T14:01:02;19.10;99.90
21115;DHT22;10715;48.546;9.896;2022-07-29T14:03:28;19.40;99.90
21115;DHT22;10715;48.546;9.896;2022-07-29T14:05:54;19.60;99.90
21115;DHT22;10715;48.546;9.896;2022-07-29T14:08:21;19.70;99.90
21115;DHT22;10715;48.546;9.896;2022-07-29T14:10:47;19.90;99.90
21115;DHT22;10715;48.546;9.896;2022-07-29T14:13:12;20.10;99.90
21115;DHT22;10715;48.546;9.896;2022-07-29T14:15:38;20.10;99.90
21115;DHT22;10715;48.546;9.896;2022-07-29T14:18:04;20.10;99.90
21115;DHT22;10715;48.546;9.896;2022-07-29T14:20:31;20.00;99.90
21115;DHT22;10715;48.546;9.896;2022-07-29T14:22:56;19.90;99.90
21115;DHT22;10715;48.546;9.896;2022-07-29T14:25:23;19.90;99.90
21115;DHT22;10715;48.546;9.896;2022-07-29T14:27:49;19.70;99.90
21115;DHT22;10715;48.546;9.896;2022-07-29T14:30:14;19.60;99.90
21115;DHT22;10715;48.546;9.896;2022-07-29T14:32:41;19.60;99.90
21115;DHT22;10715;48.546;9.896;2022-07-29T14:35:07;19.60;99.90
21115;DHT22;10715;48.546;9.896;2022-07-29T14:37:33;19.70;99.90
21115;DHT22;10715;48.546;9.896;2022-07-29T14:40:01;19.70;99.90
21115;DHT22;10715;48.546;9.896;2022-07-29T14:42:29;19.70;99.90
21115;DHT22;10715;48.546;9.896;2022-07-29T14:44:56;19.70;99.90
21115;DHT22;10715;48.546;9.896;2022-07-29T14:47:22;19.60;99.90
21115;DHT22;10715;48.546;9.896;2022-07-29T14:49:49;19.50;99.90
21115;DHT22;10715;48.546;9.896;2022-07-29T14:52:15;19.40;99.90
21115;DHT22;10715;48.546;9.896;2022-07-29T14:54:41;19.30;99.90
21115;DHT22;10715;48.546;9.896;2022-07-29T14:57:06;19.20;99.90
21115;DHT22;10715;48.546;9.896;2022-07-29T14:59:32;19.10;99.90
21115;DHT22;10715;48.546;9.896;2022-07-29T15:01:58;19.00;99.90
21115;DHT22;10715;48.546;9.896;2022-07-29T15:04:24;19.00;99.90
21115;DHT22;10715;48.546;9.896;2022-07-29T15:06:49;19.00;99.90
21115;DHT22;10715;48.546;9.896;2022-07-29T15:09:15;19.00;99.90
21115;DHT22;10715;48.546;9.896;2022-07-29T15:11:41;19.00;99.90
21115;DHT22;10715;48.546;9.896;2022-07-29T15:14:07;18.90;99.90
21115;DHT22;10715;48.546;9.896;2022-07-29T15:16:34;18.90;99.90
21115;DHT22;10715;48.546;9.896;2022-07-29T15:19:00;18.90;99.90
21115;DHT22;10715;48.546;9.896;2022-07-29T15:21:26;18.90;99.90
21115;DHT22;10715;48.546;9.896;2022-07-29T15:23:51;18.90;99.90
21115;DHT22;10715;48.546;9.896;2022-07-29T15:26:17;18.80;99.90
21115;DHT22;10715;48.546;9.896;2022-07-29T15:28:44;18.80;99.90
21115;DHT22;10715;48.546;9.896;2022-07-29T15:31:10;18.80;99.90
21115;DHT22;10715;48.546;9.896;2022-07-29T15:33:36;18.80;99.90
21115;DHT22;10715;48.546;9.896;2022-07-29T15:36:02;18.80;99.90
21115;DHT22;10715;48.546;9.896;2022-07-29T15:38:30;18.80;99.90
21115;DHT22;10715;48.546;9.896;2022-07-29T15:40:56;18.80;99.90
21115;DHT22;10715;48.546;9.896;2022-07-29T15:43:22;18.80;99.90
21115;DHT22;10715;48.546;9.896;2022-07-29T15:45:48;18.70;99.90
21115;DHT22;10715;48.546;9.896;2022-07-29T15:48:32;18.80;99.90
21115;DHT22;10715;48.546;9.896;2022-07-29T15:51:01;18.70;99.90
21115;DHT22;10715;48.546;9.896;2022-07-29T15:53:27;18.70;99.90
21115;DHT22;10715;48.546;9.896;2022-07-29T15:55:52;18.60;99.90
21115;DHT22;10715;48.546;9.896;2022-07-29T15:58:21;18.50;99.90
21115;DHT22;10715;48.546;9.896;2022-07-29T16:00:47;18.50;99.90
21115;DHT22;10715;48.546;9.896;2022-07-29T16:03:13;18.40;99.90
21115;DHT22;10715;48.546;9.896;2022-07-29T16:05:39;18.40;99.90
21115;DHT22;10715;48.546;9.896;2022-07-29T16:08:05;18.30;99.90
21115;DHT22;10715;48.546;9.896;2022-07-29T16:10:31;18.20;99.90
21115;DHT22;10715;48.546;9.896;2022-07-29T16:12:57;18.20;99.90
21115;DHT22;10715;48.546;9.896;2022-07-29T16:15:22;18.20;99.90
21115;DHT22;10715;48.546;9.896;2022-07-29T16:17:48;18.20;99.90